sensor_id;sensor_type;location;lat;lon;timestamp;pressure;altitude;pressure_sealevel;temperature;humidity
79037;BME280;68434;59.896;30.474;2023-09-19T00:00:20;101817.16;;;15.58;52.72
79037;BME280;68434;59.896;30.474;2023-09-19T00:02:54;101812.03;;;15.55;52.57
79037;BME280;68434;59.896;30.474;2023-09-19T00:05:23;101805.16;;;15.51;52.58
79037;BME280;68434;59.896;30.474;2023-09-19T00:07:54;101814.38;;;15.50;53.02
79037;BME280;68434;59.896;30.474;2023-09-19T00:10:25;101808.69;;;15.43;53.06
79037;BME280;68434;59.896;30.474;2023-09-19T00:12:54;101810.91;;;15.40;53.11
79037;BME280;68434;59.896;30.474;2023-09-19T00:15:22;101801.84;;;15.39;53.13
79037;BME280;68434;59.896;30.474;2023-09-19T00:17:49;101803.75;;;15.39;53.28
79037;BME280;68434;59.896;30.474;2023-09-19T00:20:18;101805.75;;;15.37;52.86
79037;BME280;68434;59.896;30.474;2023-09-19T00:22:49;101801.31;;;15.36;53.28
79037;BME280;68434;59.896;30.474;2023-09-19T00:25:16;101789.88;;;15.32;52.61
79037;BME280;68434;59.896;30.474;2023-09-19T00:27:45;101794.59;;;15.30;52.70
79037;BME280;68434;59.896;30.474;2023-09-19T00:30:14;101799.22;;;15.30;53.19
79037;BME280;68434;59.896;30.474;2023-09-19T00:32:45;101797.50;;;15.29;52.55
79037;BME280;68434;59.896;30.474;2023-09-19T00:35:15;101795.94;;;15.26;52.63
79037;BME280;68434;59.896;30.474;2023-09-19T00:37:43;101788.09;;;15.23;52.77
79037;BME280;68434;59.896;30.474;2023-09-19T00:40:11;101787.72;;;15.18;53.01
79037;BME280;68434;59.896;30.474;2023-09-19T00:42:41;101796.91;;;15.17;53.24
79037;BME280;68434;59.896;30.474;2023-09-19T00:45:09;101789.44;;;15.19;52.88
79037;BME280;68434;59.896;30.474;2023-09-19T00:47:42;101775.09;;;15.17;53.17
79037;BME280;68434;59.896;30.474;2023-09-19T00:50:13;101784.81;;;15.20;52.82
79037;BME280;68434;59.896;30.474;2023-09-19T00:52:43;101780.56;;;15.17;52.55
79037;BME280;68434;59.896;30.474;2023-09-19T00:55:11;101784.16;;;15.18;52.79
79037;BME280;68434;59.896;30.474;2023-09-19T00:57:39;101772.00;;;15.12;52.70
79037;BME280;68434;59.896;30.474;2023-09-19T01:00:08;101777.44;;;15.12;52.46
79037;BME280;68434;59.896;30.474;2023-09-19T01:02:42;101777.28;;;15.13;52.55
79037;BME280;68434;59.896;30.474;2023-09-19T01:05:10;101778.16;;;15.14;52.36
79037;BME280;68434;59.896;30.474;2023-09-19T01:07:41;101771.16;;;15.12;52.89
79037;BME280;68434;59.896;30.474;2023-09-19T01:10:12;101770.28;;;15.11;52.40
79037;BME280;68434;59.896;30.474;2023-09-19T01:12:47;101760.56;;;15.08;52.57
79037;BME280;68434;59.896;30.474;2023-09-19T01:15:26;101752.56;;;15.07;52.50
79037;BME280;68434;59.896;30.474;2023-09-19T01:18:02;101743.84;;;15.03;52.61
79037;BME280;68434;59.896;30.474;2023-09-19T01:20:39;101743.84;;;15.03;52.37
79037;BME280;68434;59.896;30.474;2023-09-19T01:23:20;101726.94;;;15.00;52.31
79037;BME280;68434;59.896;30.474;2023-09-19T01:26:07;101728.81;;;14.99;52.46
79037;BME280;68434;59.896;30.474;2023-09-19T01:28:45;101726.25;;;14.98;52.36
79037;BME280;68434;59.896;30.474;2023-09-19T01:31:22;101710.91;;;14.97;52.70
79037;BME280;68434;59.896;30.474;2023-09-19T01:33:55;101701.03;;;14.96;52.56
79037;BME280;68434;59.896;30.474;2023-09-19T01:36:26;101699.16;;;14.96;52.53
79037;BME280;68434;59.896;30.474;2023-09-19T01:38:55;101689.06;;;14.89;52.16
79037;BME280;68434;59.896;30.474;2023-09-19T01:41:30;101690.59;;;14.91;52.36
79037;BME280;68434;59.896;30.474;2023-09-19T01:44:03;101695.19;;;14.91;52.44
79037;BME280;68434;59.896;30.474;2023-09-19T01:46:39;101699.50;;;14.93;52.56
79037;BME280;68434;59.896;30.474;2023-09-19T01:49:18;101694.88;;;14.94;51.94
79037;BME280;68434;59.896;30.474;2023-09-19T01:51:55;101681.72;;;14.89;51.86
79037;BME280;68434;59.896;30.474;2023-09-19T01:54:27;101683.47;;;14.90;51.87
79037;BME280;68434;59.896;30.474;2023-09-19T01:57:01;101672.16;;;14.85;51.94
79037;BME280;68434;59.896;30.474;2023-09-19T01:59:35;101671.78;;;14.80;52.28
79037;BME280;68434;59.896;30.474;2023-09-19T02:02:06;101661.22;;;14.77;52.24
79037;BME280;68434;59.896;30.474;2023-09-19T02:04:34;101670.41;;;14.76;52.30
79037;BME280;68434;59.896;30.474;2023-09-19T02:07:02;101667.69;;;14.76;52.17
79037;BME280;68434;59.896;30.474;2023-09-19T02:09:32;101656.09;;;14.74;52.24
79037;BME280;68434;59.896;30.474;2023-09-19T02:12:01;101645.34;;;14.73;52.20
79037;BME280;68434;59.896;30.474;2023-09-19T02:14:30;101645.00;;;14.68;52.26
79037;BME280;68434;59.896;30.474;2023-09-19T02:16:58;101634.56;;;14.63;52.53
79037;BME280;68434;59.896;30.474;2023-09-19T02:19:27;101627.72;;;14.59;52.36
79037;BME280;68434;59.896;30.474;2023-09-19T02:21:55;101632.31;;;14.59;52.61
79037;BME280;68434;59.896;30.474;2023-09-19T02:24:23;101621.59;;;14.57;52.53
79037;BME280;68434;59.896;30.474;2023-09-19T02:26:52;101625.84;;;14.60;52.01
79037;BME280;68434;59.896;30.474;2023-09-19T02:29:21;101616.66;;;14.61;52.57
79037;BME280;68434;59.896;30.474;2023-09-19T02:31:49;101610.53;;;14.59;52.60
79037;BME280;68434;59.896;30.474;2023-09-19T02:34:16;101600.47;;;14.59;52.32
79037;BME280;68434;59.896;30.474;2023-09-19T02:36:45;101594.19;;;14.59;52.68
79037;BME280;68434;59.896;30.474;2023-09-19T02:39:13;101584.13;;;14.59;52.38
79037;BME280;68434;59.896;30.474;2023-09-19T02:41:40;101586.69;;;14.61;52.29
79037;BME280;68434;59.896;30.474;2023-09-19T02:44:10;101580.41;;;14.60;52.24
79037;BME280;68434;59.896;30.474;2023-09-19T02:46:38;101577.00;;;14.58;52.39
79037;BME280;68434;59.896;30.474;2023-09-19T02:49:06;101583.47;;;14.57;52.32
79037;BME280;68434;59.896;30.474;2023-09-19T02:51:36;101583.63;;;14.56;52.37
79037;BME280;68434;59.896;30.474;2023-09-19T02:54:06;101581.91;;;14.55;52.60
79037;BME280;68434;59.896;30.474;2023-09-19T02:56:33;101566.44;;;14.55;52.25
79037;BME280;68434;59.896;30.474;2023-09-19T02:59:01;101566.44;;;14.55;52.26
79037;BME280;68434;59.896;30.474;2023-09-19T03:01:29;101547.34;;;14.55;52.03
79037;BME280;68434;59.896;30.474;2023-09-19T03:03:56;101542.06;;;14.54;52.06
79037;BME280;68434;59.896;30.474;2023-09-19T03:06:24;101548.88;;;14.50;51.99
79037;BME280;68434;59.896;30.474;2023-09-19T03:08:52;101537.44;;;14.46;52.08
79037;BME280;68434;59.896;30.474;2023-09-19T03:11:22;101544.06;;;14.44;52.35
79037;BME280;68434;59.896;30.474;2023-09-19T03:13:55;101546.63;;;14.45;52.21
79037;BME280;68434;59.896;30.474;2023-09-19T03:16:23;101531.44;;;14.43;52.38
79037;BME280;68434;59.896;30.474;2023-09-19T03:18:54;101522.44;;;14.42;52.46
79037;BME280;68434;59.896;30.474;2023-09-19T03:21:23;101516.13;;;14.42;52.47
79037;BME280;68434;59.896;30.474;2023-09-19T03:23:52;101510.69;;;14.42;52.57
79037;BME280;68434;59.896;30.474;2023-09-19T03:26:19;101520.41;;;14.44;52.71
79037;BME280;68434;59.896;30.474;2023-09-19T03:28:48;101517.34;;;14.47;52.48
79037;BME280;68434;59.896;30.474;2023-09-19T03:31:16;101512.78;;;14.48;52.36
79037;BME280;68434;59.896;30.474;2023-09-19T03:33:43;101507.31;;;14.48;52.31
79037;BME280;68434;59.896;30.474;2023-09-19T03:36:11;101503.72;;;14.47;52.26
79037;BME280;68434;59.896;30.474;2023-09-19T03:38:40;101497.28;;;14.48;52.20
79037;BME280;68434;59.896;30.474;2023-09-19T03:41:08;101503.72;;;14.47;52.32
79037;BME280;68434;59.896;30.474;2023-09-19T03:43:36;101493.53;;;14.49;52.31
79037;BME280;68434;59.896;30.474;2023-09-19T03:46:05;101480.78;;;14.50;52.47
79037;BME280;68434;59.896;30.474;2023-09-19T03:48:34;101467.34;;;14.48;52.22
79037;BME280;68434;59.896;30.474;2023-09-19T03:51:02;101468.50;;;14.46;52.03
79037;BME280;68434;59.896;30.474;2023-09-19T03:53:30;101464.94;;;14.45;52.44
79037;BME280;68434;59.896;30.474;2023-09-19T03:55:58;101453.91;;;14.47;52.28
79037;BME280;68434;59.896;30.474;2023-09-19T03:58:25;101445.56;;;14.48;52.13
79037;BME280;68434;59.896;30.474;2023-09-19T04:00:55;101424.78;;;14.47;52.27
79037;BME280;68434;59.896;30.474;2023-09-19T04:03:24;101420.34;;;14.46;52.14
79037;BME280;68434;59.896;30.474;2023-09-19T04:06:00;101433.97;;;14.46;52.39
79037;BME280;68434;59.896;30.474;2023-09-19T04:08:28;101419.66;;;14.44;52.53
79037;BME280;68434;59.896;30.474;2023-09-19T04:10:56;101409.63;;;14.45;52.32
79037;BME280;68434;59.896;30.474;2023-09-19T04:13:23;101407.41;;;14.40;52.31
79037;BME280;68434;59.896;30.474;2023-09-19T04:15:51;101405.72;;;14.39;52.37
79037;BME280;68434;59.896;30.474;2023-09-19T04:18:18;101398.19;;;14.41;52.54
79037;BME280;68434;59.896;30.474;2023-09-19T04:20:49;101382.72;;;14.42;52.54
79037;BME280;68434;59.896;30.474;2023-09-19T04:23:17;101377.81;;;14.45;52.55
79037;BME280;68434;59.896;30.474;2023-09-19T04:25:46;101384.09;;;14.46;52.64
79037;BME280;68434;59.896;30.474;2023-09-19T04:28:14;101371.69;;;14.43;52.69
79037;BME280;68434;59.896;30.474;2023-09-19T04:30:42;101371.69;;;14.43;52.96
79037;BME280;68434;59.896;30.474;2023-09-19T04:33:10;101360.94;;;14.42;52.83
79037;BME280;68434;59.896;30.474;2023-09-19T04:35:43;101363.84;;;14.40;52.84
79037;BME280;68434;59.896;30.474;2023-09-19T04:38:12;101360.94;;;14.42;52.93
79037;BME280;68434;59.896;30.474;2023-09-19T04:40:40;101344.28;;;14.45;52.93
79037;BME280;68434;59.896;30.474;2023-09-19T04:43:08;101338.50;;;14.48;53.06
79037;BME280;68434;59.896;30.474;2023-09-19T04:45:38;101338.34;;;14.49;52.87
79037;BME280;68434;59.896;30.474;2023-09-19T04:48:06;101335.63;;;14.49;53.22
79037;BME280;68434;59.896;30.474;2023-09-19T04:50:35;101331.88;;;14.50;53.03
79037;BME280;68434;59.896;30.474;2023-09-19T04:53:03;101332.72;;;14.51;53.08
79037;BME280;68434;59.896;30.474;2023-09-19T04:55:32;101328.31;;;14.50;53.23
79037;BME280;68434;59.896;30.474;2023-09-19T04:58:00;101328.16;;;14.51;53.21
79037;BME280;68434;59.896;30.474;2023-09-19T05:00:28;101333.44;;;14.53;53.14
79037;BME280;68434;59.896;30.474;2023-09-19T05:02:56;101323.19;;;14.55;53.07
79037;BME280;68434;59.896;30.474;2023-09-19T05:05:24;101319.47;;;14.56;53.13
79037;BME280;68434;59.896;30.474;2023-09-19T05:07:52;101322.03;;;14.57;53.20
79037;BME280;68434;59.896;30.474;2023-09-19T05:10:20;101308.44;;;14.57;53.06
79037;BME280;68434;59.896;30.474;2023-09-19T05:12:53;101308.25;;;14.59;53.18
79037;BME280;68434;59.896;30.474;2023-09-19T05:15:20;101305.53;;;14.59;53.46
79037;BME280;68434;59.896;30.474;2023-09-19T05:17:48;101300.09;;;14.59;53.38
79037;BME280;68434;59.896;30.474;2023-09-19T05:20:16;101301.94;;;14.58;53.47
79037;BME280;68434;59.896;30.474;2023-09-19T05:22:50;101299.22;;;14.58;53.54
79037;BME280;68434;59.896;30.474;2023-09-19T05:25:24;101287.47;;;14.58;53.47
79037;BME280;68434;59.896;30.474;2023-09-19T05:27:58;101281.84;;;14.59;53.40
79037;BME280;68434;59.896;30.474;2023-09-19T05:30:26;101289.84;;;14.61;53.41
79037;BME280;68434;59.896;30.474;2023-09-19T05:32:55;101280.69;;;14.62;53.53
79037;BME280;68434;59.896;30.474;2023-09-19T05:35:24;101271.50;;;14.63;53.68
79037;BME280;68434;59.896;30.474;2023-09-19T05:37:53;101280.19;;;14.66;53.71
79037;BME280;68434;59.896;30.474;2023-09-19T05:40:22;101270.28;;;14.65;53.58
79037;BME280;68434;59.896;30.474;2023-09-19T05:42:49;101266.41;;;14.68;53.87
79037;BME280;68434;59.896;30.474;2023-09-19T05:45:18;101256.16;;;14.70;53.86
79037;BME280;68434;59.896;30.474;2023-09-19T05:47:49;101236.28;;;14.69;54.07
79037;BME280;68434;59.896;30.474;2023-09-19T05:50:17;101247.16;;;14.69;54.15
79037;BME280;68434;59.896;30.474;2023-09-19T05:52:51;101234.03;;;14.73;54.19
79037;BME280;68434;59.896;30.474;2023-09-19T05:55:18;101229.28;;;14.75;53.96
79037;BME280;68434;59.896;30.474;2023-09-19T05:57:50;101231.84;;;14.76;54.03
79037;BME280;68434;59.896;30.474;2023-09-19T06:00:21;101232.00;;;14.75;54.37
79037;BME280;68434;59.896;30.474;2023-09-19T06:02:52;101230.47;;;14.80;54.27
79037;BME280;68434;59.896;30.474;2023-09-19T06:05:21;101230.13;;;14.83;54.37
79037;BME280;68434;59.896;30.474;2023-09-19T06:07:48;101223.34;;;14.87;54.67
79037;BME280;68434;59.896;30.474;2023-09-19T06:10:16;101215.66;;;14.91;54.75
79037;BME280;68434;59.896;30.474;2023-09-19T06:12:44;101208.16;;;14.93;54.84
79037;BME280;68434;59.896;30.474;2023-09-19T06:15:13;101203.06;;;14.98;54.54
79037;BME280;68434;59.896;30.474;2023-09-19T06:17:46;101190.25;;;14.98;55.11
79037;BME280;68434;59.896;30.474;2023-09-19T06:20:14;101192.81;;;15.08;55.16
79037;BME280;68434;59.896;30.474;2023-09-19T06:22:44;101189.56;;;15.13;55.02
79037;BME280;68434;59.896;30.474;2023-09-19T06:25:13;101179.84;;;15.18;54.79
79037;BME280;68434;59.896;30.474;2023-09-19T06:27:47;101175.22;;;15.27;55.29
79037;BME280;68434;59.896;30.474;2023-09-19T06:30:15;101175.34;;;15.33;55.13
79037;BME280;68434;59.896;30.474;2023-09-19T06:32:45;101176.59;;;15.39;55.07
79037;BME280;68434;59.896;30.474;2023-09-19T06:35:14;101174.34;;;15.42;54.52
79037;BME280;68434;59.896;30.474;2023-09-19T06:37:42;101171.78;;;15.49;54.79
79037;BME280;68434;59.896;30.474;2023-09-19T06:40:10;101160.97;;;15.55;54.68
79037;BME280;68434;59.896;30.474;2023-09-19T06:42:40;101157.19;;;15.64;54.27
79037;BME280;68434;59.896;30.474;2023-09-19T06:45:08;101159.03;;;15.72;54.26
79037;BME280;68434;59.896;30.474;2023-09-19T06:47:37;101160.78;;;15.65;54.44
79037;BME280;68434;59.896;30.474;2023-09-19T06:50:07;101147.84;;;15.59;54.69
79037;BME280;68434;59.896;30.474;2023-09-19T06:52:39;101150.59;;;15.59;55.04
79037;BME280;68434;59.896;30.474;2023-09-19T06:55:08;101143.25;;;15.59;55.11
79037;BME280;68434;59.896;30.474;2023-09-19T06:57:37;101147.16;;;15.57;55.47
79037;BME280;68434;59.896;30.474;2023-09-19T07:00:11;101137.31;;;15.56;55.16
79037;BME280;68434;59.896;30.474;2023-09-19T07:02:45;101143.25;;;15.59;55.25
79037;BME280;68434;59.896;30.474;2023-09-19T07:05:14;101134.91;;;15.61;55.43
79037;BME280;68434;59.896;30.474;2023-09-19T07:07:44;101131.31;;;15.60;55.56
79037;BME280;68434;59.896;30.474;2023-09-19T07:10:12;101123.81;;;15.62;55.63
79037;BME280;68434;59.896;30.474;2023-09-19T07:12:40;101116.28;;;15.64;55.91
79037;BME280;68434;59.896;30.474;2023-09-19T07:15:08;101113.19;;;15.67;55.87
79037;BME280;68434;59.896;30.474;2023-09-19T07:17:36;101115.22;;;15.73;56.50
79037;BME280;68434;59.896;30.474;2023-09-19T07:20:04;101111.94;;;15.78;56.11
79037;BME280;68434;59.896;30.474;2023-09-19T07:22:35;101107.84;;;15.82;55.99
79037;BME280;68434;59.896;30.474;2023-09-19T07:25:05;101106.09;;;15.89;56.59
79037;BME280;68434;59.896;30.474;2023-09-19T07:27:34;101096.84;;;15.90;56.18
79037;BME280;68434;59.896;30.474;2023-09-19T07:30:01;101106.59;;;15.92;56.10
79037;BME280;68434;59.896;30.474;2023-09-19T07:32:30;101102.63;;;15.95;56.34
79037;BME280;68434;59.896;30.474;2023-09-19T07:34:57;101105.19;;;15.96;56.61
79037;BME280;68434;59.896;30.474;2023-09-19T07:37:25;101093.91;;;15.99;56.79
79037;BME280;68434;59.896;30.474;2023-09-19T07:39:54;101087.22;;;16.02;56.62
79037;BME280;68434;59.896;30.474;2023-09-19T07:42:21;101092.31;;;16.05;57.05
79037;BME280;68434;59.896;30.474;2023-09-19T07:44:49;101093.66;;;16.09;57.39
79037;BME280;68434;59.896;30.474;2023-09-19T07:47:17;101083.03;;;16.14;57.01
79037;BME280;68434;59.896;30.474;2023-09-19T07:49:46;101082.47;;;16.18;57.32
79037;BME280;68434;59.896;30.474;2023-09-19T07:52:14;101066.09;;;16.18;57.79
79037;BME280;68434;59.896;30.474;2023-09-19T07:54:42;101069.31;;;16.22;57.77
79037;BME280;68434;59.896;30.474;2023-09-19T07:57:11;101065.56;;;16.23;58.07
79037;BME280;68434;59.896;30.474;2023-09-19T07:59:41;101055.31;;;16.25;57.58
79037;BME280;68434;59.896;30.474;2023-09-19T08:02:09;101056.81;;;16.27;57.84
79037;BME280;68434;59.896;30.474;2023-09-19T08:04:42;101036.31;;;16.31;58.17
79037;BME280;68434;59.896;30.474;2023-09-19T08:07:12;101035.09;;;16.34;57.78
79037;BME280;68434;59.896;30.474;2023-09-19T08:09:40;101024.84;;;16.36;58.40
79037;BME280;68434;59.896;30.474;2023-09-19T08:12:13;101021.91;;;16.37;57.90
79037;BME280;68434;59.896;30.474;2023-09-19T08:14:41;101019.84;;;16.39;58.19
79037;BME280;68434;59.896;30.474;2023-09-19T08:17:09;101013.16;;;16.42;58.53
79037;BME280;68434;59.896;30.474;2023-09-19T08:19:40;101007.38;;;16.45;58.32
79037;BME280;68434;59.896;30.474;2023-09-19T08:22:08;101001.72;;;16.46;58.64
79037;BME280;68434;59.896;30.474;2023-09-19T08:24:37;101012.09;;;16.51;58.96
79037;BME280;68434;59.896;30.474;2023-09-19T08:27:04;101009.16;;;16.52;58.68
79037;BME280;68434;59.896;30.474;2023-09-19T08:29:37;101002.47;;;16.55;59.05
79037;BME280;68434;59.896;30.474;2023-09-19T08:32:05;101004.84;;;16.58;58.79
79037;BME280;68434;59.896;30.474;2023-09-19T08:34:33;101003.59;;;16.60;59.26
79037;BME280;68434;59.896;30.474;2023-09-19T08:37:04;101007.47;;;16.66;59.40
79037;BME280;68434;59.896;30.474;2023-09-19T08:39:33;100999.72;;;16.69;59.49
79037;BME280;68434;59.896;30.474;2023-09-19T08:42:03;100991.16;;;16.72;59.07
79037;BME280;68434;59.896;30.474;2023-09-19T08:44:37;100983.25;;;16.77;59.53
79037;BME280;68434;59.896;30.474;2023-09-19T08:47:09;100985.44;;;16.82;59.51
79037;BME280;68434;59.896;30.474;2023-09-19T08:49:50;100984.84;;;16.86;59.10
79037;BME280;68434;59.896;30.474;2023-09-19T08:52:27;100972.13;;;16.93;59.43
79037;BME280;68434;59.896;30.474;2023-09-19T08:54:59;100967.78;;;16.99;59.32
79037;BME280;68434;59.896;30.474;2023-09-19T08:57:33;100968.22;;;17.03;59.53
79037;BME280;68434;59.896;30.474;2023-09-19T09:00:06;100954.84;;;17.08;59.44
79037;BME280;68434;59.896;30.474;2023-09-19T09:02:37;100957.00;;;17.12;59.53
79037;BME280;68434;59.896;30.474;2023-09-19T09:05:11;100956.25;;;17.18;59.49
79037;BME280;68434;59.896;30.474;2023-09-19T09:07:42;100940.75;;;17.25;59.23
79037;BME280;68434;59.896;30.474;2023-09-19T09:10:12;100931.75;;;17.31;59.47
79037;BME280;68434;59.896;30.474;2023-09-19T09:12:43;100928.25;;;17.37;59.29
79037;BME280;68434;59.896;30.474;2023-09-19T09:15:12;100923.06;;;17.42;60.10
79037;BME280;68434;59.896;30.474;2023-09-19T09:17:46;100923.38;;;17.47;60.44
79037;BME280;68434;59.896;30.474;2023-09-19T09:20:19;100912.47;;;17.54;61.74
79037;BME280;68434;59.896;30.474;2023-09-19T09:22:52;100902.66;;;17.59;62.51
79037;BME280;68434;59.896;30.474;2023-09-19T09:25:26;100891.13;;;17.64;62.42
79037;BME280;68434;59.896;30.474;2023-09-19T09:28:21;100885.69;;;17.70;62.78
79037;BME280;68434;59.896;30.474;2023-09-19T09:30:51;100879.41;;;17.76;62.48
79037;BME280;68434;59.896;30.474;2023-09-19T09:33:20;100876.94;;;17.81;62.33
79037;BME280;68434;59.896;30.474;2023-09-19T09:35:50;100871.91;;;17.85;62.18
79037;BME280;68434;59.896;30.474;2023-09-19T09:38:20;100861.00;;;17.91;62.04
79037;BME280;68434;59.896;30.474;2023-09-19T09:40:57;100856.41;;;17.98;62.13
79037;BME280;68434;59.896;30.474;2023-09-19T09:43:35;100855.59;;;18.04;62.04
79037;BME280;68434;59.896;30.474;2023-09-19T09:46:13;100855.22;;;18.07;62.03
79037;BME280;68434;59.896;30.474;2023-09-19T09:49:00;100859.06;;;18.13;62.32
79037;BME280;68434;59.896;30.474;2023-09-19T09:51:49;100851.91;;;18.18;62.45
79037;BME280;68434;59.896;30.474;2023-09-19T09:54:27;100851.06;;;18.18;62.47
79037;BME280;68434;59.896;30.474;2023-09-19T09:57:05;100847.31;;;18.25;63.02
79037;BME280;68434;59.896;30.474;2023-09-19T09:59:50;100845.03;;;18.29;63.42
79037;BME280;68434;59.896;30.474;2023-09-19T10:02:28;100840.00;;;18.32;64.41
79037;BME280;68434;59.896;30.474;2023-09-19T10:05:12;100834.13;;;18.35;64.50
79037;BME280;68434;59.896;30.474;2023-09-19T10:07:52;100834.56;;;18.39;64.40
79037;BME280;68434;59.896;30.474;2023-09-19T10:10:31;100820.47;;;18.42;65.03
79037;BME280;68434;59.896;30.474;2023-09-19T10:13:12;100826.84;;;18.55;64.61
79037;BME280;68434;59.896;30.474;2023-09-19T10:15:53;100830.47;;;18.69;64.36
79037;BME280;68434;59.896;30.474;2023-09-19T10:18:27;100825.88;;;18.76;63.93
79037;BME280;68434;59.896;30.474;2023-09-19T10:20:59;100819.78;;;18.87;63.92
79037;BME280;68434;59.896;30.474;2023-09-19T10:23:34;100810.72;;;18.93;63.69
79037;BME280;68434;59.896;30.474;2023-09-19T10:26:07;100796.19;;;18.99;63.53
79037;BME280;68434;59.896;30.474;2023-09-19T10:28:43;100804.41;;;18.99;64.15
79037;BME280;68434;59.896;30.474;2023-09-19T10:31:28;100798.31;;;18.97;64.50
79037;BME280;68434;59.896;30.474;2023-09-19T10:34:06;100786.50;;;19.03;64.33
79037;BME280;68434;59.896;30.474;2023-09-19T10:36:37;100785.69;;;19.09;64.00
79037;BME280;68434;59.896;30.474;2023-09-19T10:39:14;100775.75;;;19.15;63.99
79037;BME280;68434;59.896;30.474;2023-09-19T10:41:50;100763.72;;;19.16;64.81
79037;BME280;68434;59.896;30.474;2023-09-19T10:44:26;100755.50;;;19.16;65.77
79037;BME280;68434;59.896;30.474;2023-09-19T10:47:01;100762.47;;;19.18;66.62
79037;BME280;68434;59.896;30.474;2023-09-19T10:49:43;100758.66;;;19.19;68.00
79037;BME280;68434;59.896;30.474;2023-09-19T10:52:27;100745.81;;;19.20;67.91
79037;BME280;68434;59.896;30.474;2023-09-19T10:55:04;100743.06;;;19.20;67.96
79037;BME280;68434;59.896;30.474;2023-09-19T10:57:34;100742.00;;;19.21;67.53
79037;BME280;68434;59.896;30.474;2023-09-19T11:00:10;100739.91;;;19.23;67.61
79037;BME280;68434;59.896;30.474;2023-09-19T11:03:17;100739.03;;;19.22;67.78
79037;BME280;68434;59.896;30.474;2023-09-19T11:06:17;100725.75;;;19.19;67.71
79037;BME280;68434;59.896;30.474;2023-09-19T11:08:57;100722.16;;;19.19;67.60
79037;BME280;68434;59.896;30.474;2023-09-19T11:11:53;100724.91;;;19.19;67.04
79037;BME280;68434;59.896;30.474;2023-09-19T11:14:41;100723.22;;;19.18;67.07
79037;BME280;68434;59.896;30.474;2023-09-19T11:17:41;100724.06;;;19.18;66.90
79037;BME280;68434;59.896;30.474;2023-09-19T11:20:23;100726.81;;;19.18;66.71
79037;BME280;68434;59.896;30.474;2023-09-19T11:23:23;100726.59;;;19.20;66.56
79037;BME280;68434;59.896;30.474;2023-09-19T11:26:10;100718.38;;;19.20;66.48
79037;BME280;68434;59.896;30.474;2023-09-19T11:32:05;100713.50;;;19.22;66.30
79037;BME280;68434;59.896;30.474;2023-09-19T11:34:46;100709.72;;;19.23;66.26
79037;BME280;68434;59.896;30.474;2023-09-19T11:41:40;100702.31;;;19.23;66.15
79037;BME280;68434;59.896;30.474;2023-09-19T11:44:35;100698.53;;;19.24;65.89
79037;BME280;68434;59.896;30.474;2023-09-19T11:47:12;100699.38;;;19.25;65.85
79037;BME280;68434;59.896;30.474;2023-09-19T11:49:45;100697.09;;;19.28;65.52
79037;BME280;68434;59.896;30.474;2023-09-19T11:52:25;100690.91;;;19.26;65.55
79037;BME280;68434;59.896;30.474;2023-09-19T11:55:01;100690.31;;;19.24;65.93
79037;BME280;68434;59.896;30.474;2023-09-19T11:57:49;100682.94;;;19.31;65.53
79037;BME280;68434;59.896;30.474;2023-09-19T12:00:35;100677.66;;;19.30;65.46
79037;BME280;68434;59.896;30.474;2023-09-19T12:03:13;100675.78;;;19.30;65.20
79037;BME280;68434;59.896;30.474;2023-09-19T12:05:48;100680.19;;;19.31;65.58
79037;BME280;68434;59.896;30.474;2023-09-19T12:08:24;100679.97;;;19.33;65.33
79037;BME280;68434;59.896;30.474;2023-09-19T12:10:56;100679.97;;;19.33;65.83
79037;BME280;68434;59.896;30.474;2023-09-19T12:13:50;100680.84;;;19.33;65.66
79037;BME280;68434;59.896;30.474;2023-09-19T12:16:23;100675.13;;;19.35;65.30
79037;BME280;68434;59.896;30.474;2023-09-19T12:18:52;100665.84;;;19.36;65.50
79037;BME280;68434;59.896;30.474;2023-09-19T12:21:26;100666.69;;;19.36;65.40
79037;BME280;68434;59.896;30.474;2023-09-19T12:24:04;100662.88;;;19.37;65.14
79037;BME280;68434;59.896;30.474;2023-09-19T12:26:43;100669.44;;;19.36;65.08
79037;BME280;68434;59.896;30.474;2023-09-19T12:29:20;100654.88;;;19.36;65.21
79037;BME280;68434;59.896;30.474;2023-09-19T12:31:54;100657.41;;;19.37;65.07
79037;BME280;68434;59.896;30.474;2023-09-19T12:34:37;100643.47;;;19.32;65.08
79037;BME280;68434;59.896;30.474;2023-09-19T12:37:11;100657.19;;;19.39;65.43
79037;BME280;68434;59.896;30.474;2023-09-19T12:39:49;100644.31;;;19.39;65.85
79037;BME280;68434;59.896;30.474;2023-09-19T12:42:25;100641.34;;;19.41;65.77
79037;BME280;68434;59.896;30.474;2023-09-19T12:45:23;100639.44;;;19.41;65.99
79037;BME280;68434;59.896;30.474;2023-09-19T12:48:20;100631.63;;;19.38;66.32
79037;BME280;68434;59.896;30.474;2023-09-19T12:51:09;100625.50;;;19.43;66.20
79037;BME280;68434;59.896;30.474;2023-09-19T12:53:46;100624.47;;;19.44;65.94
79037;BME280;68434;59.896;30.474;2023-09-19T12:56:40;100617.91;;;19.51;65.79
79037;BME280;68434;59.896;30.474;2023-09-19T12:59:15;100619.34;;;19.54;65.64
79037;BME280;68434;59.896;30.474;2023-09-19T13:01:50;100604.34;;;19.56;65.63
79037;BME280;68434;59.896;30.474;2023-09-19T13:04:33;100603.91;;;19.59;65.35
79037;BME280;68434;59.896;30.474;2023-09-19T13:07:42;100601.59;;;19.63;65.41
79037;BME280;68434;59.896;30.474;2023-09-19T13:10:16;100590.41;;;19.64;65.04
79037;BME280;68434;59.896;30.474;2023-09-19T13:12:51;100596.53;;;19.66;64.96
79037;BME280;68434;59.896;30.474;2023-09-19T13:15:23;100587.44;;;19.66;64.99